LFOH/LEH METAR and TAF weather

Enter ICAO airport designator
Station Type Date Time Source
LFOH METAR 2021/02/25 16:00 UTC NOAA

LFOH 251600Z AUTO 33006KT 3800 BR OVC001 08/08 Q1029 BECMG 9999 NSW SCT015 BKN040


Station Type Date Time Source
LFOH Decoded METAR 2021/02/25 16:00 UTC NOAA

La Heve, France (LFOH) 49-31N 000-04E 103M
Feb 25, 2021 - 11:00 AM EST / 2021.02.25 1600 UTC
Wind: from the NNW (330 degrees) at 7 MPH (6 KT):0
Visibility: 2 mile(s):0
Sky conditions: overcast
Weather: mist
Temperature: 46 F (8 C)
Dew Point: 46 F (8 C)
Relative Humidity: 100%
Pressure (altimeter): 30.39 in. Hg (1029 hPa)
ob: LFOH 251600Z AUTO 33006KT 3800 BR OVC001 08/08 Q1029 BECMG 9999 NSW SCT015 BKN040
cycle: 16

Station Type Date Time Source
LFOH TAF 2021/02/25 13:36 UTC NOAA

TAF
AMD TAF
AMD LFOH 251333Z 2513/2612 32010KT 9999 SCT015 BKN040
TEMPO 2513/2516 4000 DZ OVC002
BECMG 2602/2605 02008KT

Example: see airport list